Time;durP1;ratioP1;P1;durP2;ratioP2;P2;SDS_P1;SDS_P2;PMS_P1;PMS_P2;Temp;Humidity;BMP_temperature;BMP_pressure;BME280_temperature;BME280_humidity;BME280_pressure;Samples;Min_cycle;Max_cycle;Signal;HPM_P1;HPM_P2
2023/03/26 00:01:45;;;;;;;7.40;1.50;;;;;;;11.13;67.64;100053.44;5055041;28;20203;-70
2023/03/26 00:04:18;;;;;;;6.27;1.27;;;;;;;11.03;67.79;100044.78;5051822;28;20212;-70
2023/03/26 00:06:47;;;;;;;13.20;2.57;;;;;;;11.01;67.88;100046.75;5051432;28;20345;-68
2023/03/26 00:09:17;;;;;;;6.77;1.30;;;;;;;10.99;68.05;100044.28;5055245;28;20231;-68
2023/03/26 00:11:45;;;;;;;5.57;1.33;;;;;;;11.00;67.99;100039.78;5049916;28;20623;-71
2023/03/26 00:14:16;;;;;;;5.97;1.13;;;;;;;11.02;67.90;100037.81;5052414;28;20239;-69
2023/03/26 00:16:46;;;;;;;7.50;1.40;;;;;;;11.06;67.71;100039.97;5053667;28;20229;-70
2023/03/26 00:19:14;;;;;;;8.03;2.10;;;;;;;11.03;67.78;100029.69;5052856;28;20208;-68
2023/03/26 00:21:42;;;;;;;8.03;1.43;;;;;;;11.05;67.62;100032.19;5051856;28;20587;-69
2023/03/26 00:24:13;;;;;;;8.03;1.63;;;;;;;11.05;67.58;100026.88;5051660;28;20297;-69
2023/03/26 00:26:47;;;;;;;5.57;1.40;;;;;;;11.09;67.72;100025.53;5052715;28;20212;-68
2023/03/26 00:29:15;;;;;;;8.10;1.57;;;;;;;11.11;67.35;100020.91;5052199;28;20207;-69
2023/03/26 00:31:44;;;;;;;7.53;1.30;;;;;;;11.13;67.45;100024.25;5050287;28;20212;-70
2023/03/26 00:34:14;;;;;;;6.90;1.47;;;;;;;11.11;67.42;100028.88;5050187;28;20203;-69
2023/03/26 00:36:42;;;;;;;10.13;1.50;;;;;;;11.07;67.77;100040.81;5054383;28;20290;-68
2023/03/26 00:39:10;;;;;;;5.83;1.27;;;;;;;11.11;67.36;100026.22;5051229;28;20683;-70
2023/03/26 00:41:41;;;;;;;6.80;1.63;;;;;;;11.07;67.71;100024.91;5053911;28;20218;-67
2023/03/26 00:44:11;;;;;;;7.53;1.30;;;;;;;10.98;68.40;100025.88;5052248;28;20321;-68
2023/03/26 00:46:39;;;;;;;7.80;1.30;;;;;;;10.94;68.83;100030.66;5055586;28;20621;-71
2023/03/26 00:49:09;;;;;;;9.57;1.80;;;;;;;10.85;69.67;100026.31;5053835;28;20261;-70
2023/03/26 00:51:37;;;;;;;8.30;1.60;;;;;;;10.76;69.97;100028.09;5051597;28;20923;-70
2023/03/26 00:54:09;;;;;;;8.13;1.50;;;;;;;10.75;70.19;100023.78;5053277;28;20210;-70
2023/03/26 00:56:37;;;;;;;7.30;1.63;;;;;;;10.56;71.24;100013.41;5052813;28;20236;-69
2023/03/26 00:59:05;;;;;;;7.77;1.20;;;;;;;10.58;71.37;100014.09;5050755;28;20216;-70
2023/03/26 01:01:34;;;;;;;7.30;1.37;;;;;;;10.57;71.36;100012.44;5053211;28;20230;-68
2023/03/26 01:04:22;;;;;;;9.37;1.33;;;;;;;10.51;71.63;100000.66;5055730;28;20232;-68
2023/03/26 01:06:51;;;;;;;7.40;1.37;;;;;;;10.52;71.82;99997.03;5051566;28;20208;-69
2023/03/26 01:09:21;;;;;;;6.97;1.40;;;;;;;10.60;71.51;99987.44;5053093;28;21032;-66
2023/03/26 01:11:49;;;;;;;5.03;1.17;;;;;;;10.55;71.50;99986.09;5051057;28;20217;-68
2023/03/26 01:14:22;;;;;;;5.97;1.77;;;;;;;10.63;71.29;99982.66;5052630;28;20222;-70
2023/03/26 01:16:53;;;;;;;6.97;1.40;;;;;;;10.61;71.17;99981.16;5055100;28;20741;-69
2023/03/26 01:19:29;;;;;;;10.90;1.50;;;;;;;10.62;71.12;99982.81;5049341;28;20207;-69
2023/03/26 01:21:58;;;;;;;9.17;2.30;;;;;;;10.66;71.22;99977.00;5051728;28;20211;-69
2023/03/26 01:24:27;;;;;;;7.33;1.80;;;;;;;10.66;71.00;99976.19;5052632;28;20696;-67
2023/03/26 01:27:23;;;;;;;11.23;2.10;;;;;;;10.57;71.31;99976.16;5051262;28;20211;-67
2023/03/26 01:29:55;;;;;;;9.33;2.00;;;;;;;10.61;71.28;99981.16;5051651;28;20204;-68
2023/03/26 01:32:36;;;;;;;12.77;2.53;;;;;;;10.64;71.28;99971.06;5055158;28;20208;-66
2023/03/26 01:35:20;;;;;;;10.50;2.40;;;;;;;10.66;71.19;99963.75;5050826;28;20303;-68
2023/03/26 01:38:00;;;;;;;9.50;2.03;;;;;;;10.76;70.58;99960.97;5050709;28;20330;-69
2023/03/26 01:40:41;;;;;;;7.57;2.40;;;;;;;10.71;70.60;99953.50;5052401;28;20568;-70
2023/03/26 01:43:12;;;;;;;12.27;2.20;;;;;;;10.67;70.95;99948.69;5050535;28;20216;-68
2023/03/26 01:45:44;;;;;;;10.27;2.40;;;;;;;10.70;70.94;99935.94;5052556;28;20219;-69
2023/03/26 01:48:12;;;;;;;8.83;2.00;;;;;;;10.72;70.71;99936.63;5051302;28;22690;-70
2023/03/26 01:50:40;;;;;;;8.03;2.00;;;;;;;10.66;71.19;99934.59;5050342;28;20204;-67
2023/03/26 01:53:11;;;;;;;10.63;1.97;;;;;;;10.69;70.91;99936.94;5050582;28;20207;-69
2023/03/26 01:55:52;;;;;;;6.60;1.73;;;;;;;10.75;70.79;99930.97;5052124;28;20224;-68
2023/03/26 01:58:29;;;;;;;7.53;2.20;;;;;;;10.81;70.49;99938.28;5050218;28;20215;-69
2023/03/26 02:01:06;;;;;;;9.87;2.10;;;;;;;10.81;70.22;99922.38;5050887;28;20207;-68
2023/03/26 02:03:43;;;;;;;11.37;2.60;;;;;;;10.80;70.11;99928.69;5049326;28;20357;-69
2023/03/26 02:06:20;;;;;;;7.57;2.60;;;;;;;10.75;70.23;99917.72;5049628;28;20530;-67
2023/03/26 02:08:52;;;;;;;6.27;1.60;;;;;;;10.73;70.30;99917.03;5051478;28;20774;-69
2023/03/26 02:11:22;;;;;;;9.47;1.77;;;;;;;10.77;70.15;99910.44;5050101;28;20212;-68
2023/03/26 02:13:51;;;;;;;5.90;1.50;;;;;;;10.86;69.62;99912.09;5050639;28;20217;-69
2023/03/26 02:16:20;;;;;;;7.73;1.70;;;;;;;10.89;69.40;99895.88;5048606;28;20226;-68
2023/03/26 02:18:50;;;;;;;8.10;1.63;;;;;;;10.89;69.18;99884.44;5049205;28;20203;-69
2023/03/26 02:21:20;;;;;;;7.63;1.50;;;;;;;10.91;69.24;99887.72;5052128;28;20532;-69
2023/03/26 02:23:56;;;;;;;7.77;1.67;;;;;;;10.91;68.89;99888.56;5053750;28;20871;-67
2023/03/26 02:26:25;;;;;;;13.60;2.03;;;;;;;10.89;69.11;99873.81;5046562;28;20326;-68
2023/03/26 02:28:53;;;;;;;9.27;2.17;;;;;;;10.84;69.26;99866.34;5050944;28;20213;-72
2023/03/26 02:31:25;;;;;;;10.07;1.70;;;;;;;10.81;69.47;99866.69;5048941;28;20218;-72
2023/03/26 02:33:54;;;;;;;7.87;1.27;;;;;;;10.74;69.97;99865.66;5048821;28;20204;-68
2023/03/26 02:36:26;;;;;;;9.13;1.70;;;;;;;10.79;69.71;99855.41;5047412;28;20219;-68
2023/03/26 02:38:56;;;;;;;7.70;2.10;;;;;;;10.82;69.32;99856.88;5048272;28;20236;-72
2023/03/26 02:41:25;;;;;;;8.00;1.70;;;;;;;10.84;69.44;99852.25;5049412;28;20221;-69
2023/03/26 02:43:53;;;;;;;6.07;1.60;;;;;;;10.90;69.08;99849.78;5051210;28;20680;-69
2023/03/26 02:46:21;;;;;;;6.93;1.50;;;;;;;10.91;69.01;99850.59;5051961;28;20679;-69
2023/03/26 02:48:49;;;;;;;7.57;1.93;;;;;;;10.83;69.17;99846.13;5050302;28;20312;-70
2023/03/26 02:51:17;;;;;;;6.23;1.30;;;;;;;10.78;69.38;99835.19;5053150;28;20208;-70
2023/03/26 02:53:46;;;;;;;10.37;1.50;;;;;;;10.79;69.31;99842.16;5051239;28;20215;-67
2023/03/26 02:56:14;;;;;;;8.37;2.27;;;;;;;10.83;69.45;99842.63;5051424;28;20219;-68
2023/03/26 02:58:43;;;;;;;5.07;1.70;;;;;;;10.88;69.06;99835.03;5054275;28;20212;-70
2023/03/26 03:01:10;;;;;;;4.97;1.63;;;;;;;10.93;68.86;99820.25;5050750;28;20708;-69
2023/03/26 03:03:38;;;;;;;8.93;2.07;;;;;;;11.05;68.48;99819.94;5050983;28;21205;-70
2023/03/26 03:06:07;;;;;;;7.47;1.20;;;;;;;11.05;68.35;99815.47;5048791;28;20231;-70
2023/03/26 03:08:35;;;;;;;10.07;1.93;;;;;;;11.15;67.74;99812.63;5051830;28;20581;-69
2023/03/26 03:11:08;;;;;;;10.80;1.37;;;;;;;11.08;68.10;99809.00;5053441;28;20294;-69
2023/03/26 03:13:36;;;;;;;8.77;1.80;;;;;;;11.12;67.88;99808.47;5048574;28;20210;-68
2023/03/26 03:16:06;;;;;;;7.30;1.30;;;;;;;11.17;67.67;99808.00;5054011;28;20209;-69
2023/03/26 03:18:34;;;;;;;10.23;1.60;;;;;;;11.08;67.90;99793.88;5056554;28;20610;-70
2023/03/26 03:21:02;;;;;;;8.63;1.30;;;;;;;11.02;68.28;99788.41;5052078;28;20677;-68
2023/03/26 03:23:30;;;;;;;9.33;1.83;;;;;;;10.99;68.41;99784.28;5052223;28;20224;-67
2023/03/26 03:25:58;;;;;;;5.70;1.80;;;;;;;10.94;68.58;99776.00;5053758;28;20215;-69
2023/03/26 03:28:26;;;;;;;8.80;2.10;;;;;;;10.89;68.79;99771.22;5053969;28;20232;-68
2023/03/26 03:30:56;;;;;;;7.40;2.03;;;;;;;11.00;68.64;99772.66;5053408;28;20843;-69
2023/03/26 03:33:28;;;;;;;8.37;2.23;;;;;;;11.07;68.24;99770.19;5055286;28;20197;-69
2023/03/26 03:35:55;;;;;;;8.10;1.60;;;;;;;11.09;68.19;99765.53;5054340;28;20209;-68
2023/03/26 03:38:24;;;;;;;9.23;1.83;;;;;;;11.20;67.62;99765.19;5047087;28;20240;-70
2023/03/26 03:40:53;;;;;;;10.20;2.00;;;;;;;11.26;67.67;99769.81;5053233;28;20658;-69
2023/03/26 03:43:20;;;;;;;10.07;1.93;;;;;;;11.32;67.91;99769.97;5056735;28;20203;-68
2023/03/26 03:45:48;;;;;;;12.40;1.63;;;;;;;11.33;67.44;99762.84;5051125;28;20720;-68
2023/03/26 03:48:17;;;;;;;7.97;1.67;;;;;;;11.24;67.55;99747.94;5052048;28;20215;-67
2023/03/26 03:50:48;;;;;;;8.10;1.60;;;;;;;11.30;67.46;99750.72;5051958;28;20204;-68
2023/03/26 03:53:17;;;;;;;8.40;1.47;;;;;;;11.31;67.35;99740.94;5053486;28;21225;-69
2023/03/26 03:55:51;;;;;;;6.33;1.33;;;;;;;11.37;67.06;99737.59;5050919;28;20677;-67
2023/03/26 03:58:20;;;;;;;9.17;1.63;;;;;;;11.43;66.68;99730.78;5053246;28;20593;-69
2023/03/26 04:00:49;;;;;;;8.07;1.50;;;;;;;11.47;66.27;99730.28;5052594;28;20215;-68
2023/03/26 04:03:16;;;;;;;9.07;1.60;;;;;;;11.45;66.72;99732.25;5052694;28;20215;-69
2023/03/26 04:05:48;;;;;;;9.57;1.63;;;;;;;11.44;66.38;99721.81;5053331;28;20274;-70
2023/03/26 04:08:17;;;;;;;8.63;1.70;;;;;;;11.38;66.73;99718.03;5049662;28;20238;-66
2023/03/26 04:10:45;;;;;;;12.63;2.03;;;;;;;11.34;67.06;99721.22;5054478;28;21050;-68
2023/03/26 04:13:14;;;;;;;10.07;2.13;;;;;;;11.27;67.29;99710.41;5057720;28;20235;-70
2023/03/26 04:15:43;;;;;;;10.23;1.97;;;;;;;11.25;67.43;99705.31;5051617;28;20279;-69
2023/03/26 04:18:11;;;;;;;8.27;1.47;;;;;;;11.25;67.60;99699.16;5055378;28;20206;-70
2023/03/26 04:20:45;;;;;;;11.13;1.87;;;;;;;11.21;67.70;99696.03;5053622;28;20243;-69
2023/03/26 04:23:13;;;;;;;9.57;1.97;;;;;;;11.21;67.63;99682.75;5052460;28;20303;-69
2023/03/26 04:25:47;;;;;;;7.10;1.53;;;;;;;11.18;67.92;99656.53;5054456;28;20282;-69
2023/03/26 04:28:25;;;;;;;8.00;1.60;;;;;;;11.21;67.74;99652.72;5054132;28;20272;-68
2023/03/26 04:30:53;;;;;;;8.37;1.60;;;;;;;11.31;67.04;99677.25;5048566;28;20803;-70
2023/03/26 04:33:21;;;;;;;10.10;2.00;;;;;;;11.27;67.32;99665.31;5053387;28;20204;-70
2023/03/26 04:35:49;;;;;;;6.33;1.70;;;;;;;11.19;67.58;99657.38;5050083;28;20574;-70
2023/03/26 04:38:17;;;;;;;14.63;2.67;;;;;;;11.10;67.99;99663.72;5052113;28;20289;-67
2023/03/26 04:40:47;;;;;;;11.00;1.80;;;;;;;11.15;67.77;99667.53;5052936;28;20211;-68
2023/03/26 04:43:17;;;;;;;11.10;2.20;;;;;;;11.11;67.92;99655.59;5054231;28;20208;-67
2023/03/26 04:45:46;;;;;;;5.23;2.03;;;;;;;11.11;67.93;99646.78;5053312;28;20235;-67
2023/03/26 04:48:14;;;;;;;4.97;1.60;;;;;;;11.15;67.95;99629.53;5054082;28;20218;-69
2023/03/26 04:50:46;;;;;;;5.47;1.50;;;;;;;11.18;67.96;99635.31;5051119;28;20635;-68
2023/03/26 04:53:16;;;;;;;11.40;1.90;;;;;;;11.23;67.71;99629.50;5054742;28;20215;-66
2023/03/26 04:55:49;;;;;;;9.13;1.80;;;;;;;11.24;67.74;99624.03;5054531;28;20223;-68
2023/03/26 04:58:17;;;;;;;9.20;1.90;;;;;;;11.22;67.84;99630.50;5055019;28;20200;-67
2023/03/26 05:00:46;;;;;;;5.83;1.80;;;;;;;11.21;67.58;99618.22;5053579;28;20212;-70
2023/03/26 05:03:14;;;;;;;11.33;1.60;;;;;;;11.17;67.71;99616.94;5055370;28;20326;-71
2023/03/26 05:05:42;;;;;;;7.93;1.90;;;;;;;11.13;67.73;99611.16;5052939;28;20223;-68
2023/03/26 05:08:10;;;;;;;10.87;2.10;;;;;;;11.08;67.94;99607.38;5052640;28;20231;-68
2023/03/26 05:10:37;;;;;;;9.37;2.03;;;;;;;11.11;68.19;99601.69;5053494;28;20204;-68
2023/03/26 05:13:06;;;;;;;12.27;2.57;;;;;;;11.14;68.30;99591.56;5049444;28;20211;-68
2023/03/26 05:15:34;;;;;;;11.40;2.03;;;;;;;11.26;67.69;99594.66;5052066;28;20207;-69
2023/03/26 05:18:02;;;;;;;16.47;3.30;;;;;;;11.25;67.23;99583.22;5051969;28;20212;-69
2023/03/26 05:20:30;;;;;;;8.87;2.13;;;;;;;11.19;67.48;99588.38;5054218;28;20697;-69
2023/03/26 05:22:58;;;;;;;9.33;1.93;;;;;;;11.07;67.59;99580.00;5052067;28;20406;-69
2023/03/26 05:25:26;;;;;;;13.07;2.00;;;;;;;11.02;67.79;99582.34;5053810;28;20323;-67
2023/03/26 05:27:54;;;;;;;9.67;2.27;;;;;;;10.93;68.45;99567.44;5050185;28;20212;-69
2023/03/26 05:30:23;;;;;;;11.70;2.37;;;;;;;10.93;68.74;99565.63;5048699;28;20211;-69
2023/03/26 05:32:51;;;;;;;11.00;1.77;;;;;;;10.97;68.68;99571.41;5051182;28;20232;-69
2023/03/26 05:35:19;;;;;;;7.30;1.80;;;;;;;10.99;68.82;99565.94;5051324;28;20212;-69
2023/03/26 05:37:48;;;;;;;7.67;1.60;;;;;;;11.15;68.50;99561.38;5050743;28;20315;-69
2023/03/26 05:40:16;;;;;;;6.50;1.57;;;;;;;11.26;68.22;99549.53;5051139;28;20211;-70
2023/03/26 05:42:45;;;;;;;7.60;1.90;;;;;;;11.33;67.92;99547.84;5052627;28;20219;-70
2023/03/26 05:45:15;;;;;;;16.50;2.60;;;;;;;11.32;68.25;99551.50;5053417;28;20234;-69
2023/03/26 05:47:48;;;;;;;12.10;2.17;;;;;;;11.21;69.30;99549.25;5049371;28;20260;-68
2023/03/26 05:50:16;;;;;;;9.03;2.10;;;;;;;11.17;69.81;99543.44;5049965;28;20224;-68
2023/03/26 05:52:44;;;;;;;10.07;1.87;;;;;;;11.11;70.26;99525.56;5048848;28;20211;-67
2023/03/26 05:55:12;;;;;;;9.47;1.87;;;;;;;11.10;71.14;99533.72;5051349;28;20284;-69
2023/03/26 05:57:41;;;;;;;11.87;2.37;;;;;;;11.02;71.87;99537.22;5051991;28;20253;-68
2023/03/26 06:00:11;;;;;;;13.20;2.10;;;;;;;11.01;72.48;99532.09;5049669;28;20842;-71
2023/03/26 06:02:38;;;;;;;7.63;2.10;;;;;;;11.01;73.13;99537.41;5051272;28;20577;-69
2023/03/26 06:05:11;;;;;;;11.33;2.43;;;;;;;10.96;73.66;99529.16;5053674;28;20337;-68
2023/03/26 06:07:39;;;;;;;11.70;2.37;;;;;;;10.88;74.13;99520.25;5051629;28;20239;-70
2023/03/26 06:10:08;;;;;;;12.73;2.40;;;;;;;10.80;74.70;99517.63;5051943;28;20219;-68
2023/03/26 06:12:36;;;;;;;8.83;2.20;;;;;;;10.78;75.05;99514.31;5052941;28;20812;-70
2023/03/26 06:15:07;;;;;;;11.07;2.07;;;;;;;10.81;75.13;99518.44;5051443;28;20212;-68
2023/03/26 06:17:35;;;;;;;7.07;2.10;;;;;;;10.73;76.17;99497.28;5050871;28;20238;-69
2023/03/26 06:20:05;;;;;;;9.73;3.37;;;;;;;10.82;75.78;99497.03;5053451;28;20241;-70
2023/03/26 06:22:37;;;;;;;15.33;2.13;;;;;;;11.00;75.30;99485.34;5050589;28;20231;-69
2023/03/26 06:25:06;;;;;;;6.87;2.00;;;;;;;10.86;76.17;99478.97;5048457;28;20219;-68
2023/03/26 06:27:34;;;;;;;12.67;2.07;;;;;;;10.86;76.15;99469.19;5050392;28;20228;-68
2023/03/26 06:30:01;;;;;;;9.00;2.07;;;;;;;10.83;76.07;99472.19;5051409;28;20227;-68
2023/03/26 06:32:29;;;;;;;7.30;2.00;;;;;;;10.80;76.25;99467.25;5052619;28;20672;-70
2023/03/26 06:35:00;;;;;;;11.57;2.10;;;;;;;10.87;75.93;99464.72;5050099;28;20215;-69
2023/03/26 06:37:28;;;;;;;10.17;2.30;;;;;;;10.76;76.76;99460.63;5050227;28;20208;-67
2023/03/26 06:39:57;;;;;;;15.70;2.90;;;;;;;10.76;77.25;99454.50;5031370;28;20204;-69
2023/03/26 06:42:25;;;;;;;10.17;2.10;;;;;;;10.78;76.66;99448.03;5029419;28;20208;-70
2023/03/26 06:45:12;;;;;;;12.17;2.73;;;;;;;10.72;77.51;99448.72;5033276;28;20710;-70
2023/03/26 06:47:40;;;;;;;10.27;2.63;;;;;;;10.80;77.10;99443.38;5031426;28;20241;-70
2023/03/26 06:50:09;;;;;;;6.70;1.90;;;;;;;10.87;76.73;99446.97;5033605;28;20212;-70
2023/03/26 06:52:36;;;;;;;13.03;3.13;;;;;;;10.85;76.83;99441.00;5034829;28;20698;-70
2023/03/26 06:55:09;;;;;;;9.53;2.13;;;;;;;10.97;76.78;99444.09;5037228;28;20214;-69
2023/03/26 06:57:40;;;;;;;7.67;2.30;;;;;;;11.04;76.02;99442.41;5038312;28;20242;-69
2023/03/26 07:00:09;;;;;;;11.13;2.93;;;;;;;11.02;76.17;99444.38;5035892;28;20219;-69
2023/03/26 07:02:37;;;;;;;11.87;3.47;;;;;;;11.04;76.43;99444.22;5036212;28;21021;-70
2023/03/26 07:05:07;;;;;;;16.60;3.17;;;;;;;11.12;76.05;99441.50;5035836;28;20223;-71
2023/03/26 07:07:35;;;;;;;8.63;2.87;;;;;;;11.13;76.57;99438.69;5036252;28;20232;-69
2023/03/26 07:10:14;;;;;;;17.37;2.80;;;;;;;11.22;76.65;99428.84;5032443;28;20265;-69
2023/03/26 07:12:42;;;;;;;12.47;2.90;;;;;;;11.21;76.57;99416.56;5035102;28;20223;-68
2023/03/26 07:15:10;;;;;;;17.47;4.23;;;;;;;11.27;76.28;99413.19;5035527;28;20230;-67
2023/03/26 07:17:38;;;;;;;8.03;2.70;;;;;;;11.31;76.92;99417.97;5033808;28;20200;-68
2023/03/26 07:20:08;;;;;;;12.67;2.40;;;;;;;11.40;76.41;99416.09;5036533;28;20201;-69
2023/03/26 07:22:37;;;;;;;9.07;2.37;;;;;;;11.43;76.12;99405.13;5034941;28;20219;-69
2023/03/26 07:25:06;;;;;;;8.97;2.17;;;;;;;11.40;76.07;99410.78;5035223;28;20213;-70
2023/03/26 07:27:46;;;;;;;12.37;3.07;;;;;;;11.25;76.97;99407.25;5034149;28;20239;-69
2023/03/26 07:30:19;;;;;;;9.10;2.40;;;;;;;11.13;78.00;99403.38;5034256;28;20210;-66
2023/03/26 07:32:52;;;;;;;11.37;3.00;;;;;;;11.25;77.85;99396.66;5035461;28;20737;-67
2023/03/26 07:35:26;;;;;;;13.47;2.73;;;;;;;11.33;78.03;99401.88;5036000;28;20219;-68
2023/03/26 07:38:12;;;;;;;10.30;3.00;;;;;;;11.44;77.79;99400.63;5037781;28;20242;-68
2023/03/26 07:40:53;;;;;;;14.30;3.77;;;;;;;11.47;77.39;99387.00;5054405;28;20599;-69
2023/03/26 07:43:38;;;;;;;10.33;3.57;;;;;;;11.47;77.37;99385.16;5051212;28;20204;-70
2023/03/26 07:46:11;;;;;;;12.97;3.73;;;;;;;11.47;77.83;99382.50;5054022;28;20304;-63
2023/03/26 07:48:41;;;;;;;10.43;3.27;;;;;;;11.43;78.22;99378.56;5055821;28;20274;-63
2023/03/26 07:51:10;;;;;;;15.47;3.83;;;;;;;11.36;78.80;99377.63;5057506;28;20211;-63
2023/03/26 07:53:38;;;;;;;17.83;4.83;;;;;;;11.37;78.69;99368.66;5053259;28;21403;-64
2023/03/26 07:56:11;;;;;;;13.50;4.07;;;;;;;11.39;78.80;99379.94;5055197;28;21108;-64
2023/03/26 07:58:59;;;;;;;11.20;4.53;;;;;;;11.27;79.46;99373.38;5052957;28;20237;-63
2023/03/26 08:01:41;;;;;;;17.03;4.80;;;;;;;11.24;80.16;99374.59;5055356;28;20214;-64
2023/03/26 08:04:24;;;;;;;14.13;3.10;;;;;;;11.27;80.07;99378.69;5056464;28;20628;-64
2023/03/26 08:06:59;;;;;;;9.87;3.13;;;;;;;11.34;79.53;99373.53;5057424;28;20223;-64
2023/03/26 08:09:32;;;;;;;12.03;3.23;;;;;;;11.35;79.70;99383.94;5050899;28;20235;-64
2023/03/26 08:12:06;;;;;;;11.83;2.87;;;;;;;11.22;80.31;99386.38;5055373;28;20209;-63
2023/03/26 08:14:47;;;;;;;7.07;2.50;;;;;;;11.12;80.24;99381.31;5056516;28;20666;-63
2023/03/26 08:17:21;;;;;;;13.97;3.00;;;;;;;10.93;81.82;99381.78;5057588;28;20206;-63
2023/03/26 08:20:00;;;;;;;11.80;2.90;;;;;;;10.84;82.85;99374.88;5052814;28;20295;-63
2023/03/26 08:22:36;;;;;;;9.60;2.87;;;;;;;10.85;84.05;99363.28;5051216;28;20215;-64
2023/03/26 08:25:16;;;;;;;13.80;3.50;;;;;;;11.04;83.76;99361.97;5054915;28;20206;-66
2023/03/26 08:27:54;;;;;;;14.10;2.53;;;;;;;11.11;82.66;99361.09;5056553;28;20406;-69
2023/03/26 08:30:25;;;;;;;6.13;2.20;;;;;;;11.15;81.98;99353.63;5050701;28;20657;-64
2023/03/26 08:32:56;;;;;;;8.77;2.50;;;;;;;11.09;81.10;99349.00;5053599;28;20680;-63
2023/03/26 08:35:24;;;;;;;10.87;3.43;;;;;;;10.98;81.84;99341.47;5055481;28;20209;-64
2023/03/26 08:37:52;;;;;;;16.60;3.03;;;;;;;10.86;82.56;99339.25;5051638;28;20235;-64
2023/03/26 08:40:44;;;;;;;9.90;2.30;;;;;;;10.84;82.94;99330.63;5053099;28;20204;-64
2023/03/26 08:43:43;;;;;;;7.80;2.50;;;;;;;10.84;82.02;99320.03;5054525;28;20208;-64
2023/03/26 08:46:27;;;;;;;10.53;3.03;;;;;;;10.81;82.47;99306.31;5054436;28;20222;-62
2023/03/26 08:49:20;;;;;;;15.37;3.47;;;;;;;10.94;82.53;99312.66;5056463;28;20204;-65
2023/03/26 08:52:52;;;;;;;8.37;2.67;;;;;;;11.48;81.21;99316.97;5054848;28;20218;-65
2023/03/26 08:55:39;;;;;;;13.63;2.53;;;;;;;11.82;77.85;99314.63;5056241;28;20215;-67
2023/03/26 08:58:37;;;;;;;10.97;2.93;;;;;;;11.85;77.09;99310.78;5055250;28;20211;-66
2023/03/26 09:01:38;;;;;;;9.20;3.00;;;;;;;11.75;77.74;99307.59;5055404;28;20208;-67
2023/03/26 09:04:43;;;;;;;8.63;2.00;;;;;;;11.61;77.54;99304.69;5047887;28;20807;-68
2023/03/26 09:07:36;;;;;;;10.10;1.53;;;;;;;11.33;76.93;99309.00;5055882;28;20231;-64
2023/03/26 09:10:33;;;;;;;7.07;1.57;;;;;;;11.16;77.87;99310.16;5055327;28;20205;-64
2023/03/26 09:13:33;;;;;;;7.50;1.73;;;;;;;11.05;77.69;99297.31;5054409;28;20915;-64
2023/03/26 09:16:46;;;;;;;8.83;1.70;;;;;;;10.93;79.56;99292.44;5039107;28;20381;-65
2023/03/26 09:19:41;;;;;;;6.20;2.13;;;;;;;11.56;79.04;99282.38;5017526;28;20258;-64
2023/03/26 09:22:53;;;;;;;8.43;1.73;;;;;;;12.21;74.06;99277.13;5056969;28;20216;-65
2023/03/26 09:25:57;;;;;;;7.77;1.93;;;;;;;11.99;74.53;99278.06;5052711;28;20215;-66
2023/03/26 09:28:58;;;;;;;9.37;2.10;;;;;;;11.63;76.03;99288.59;5053795;28;20233;-66
2023/03/26 09:32:05;;;;;;;7.27;1.80;;;;;;;11.53;77.16;99288.88;5053110;28;20210;-66
2023/03/26 09:34:46;;;;;;;5.27;1.90;;;;;;;11.47;75.96;99281.63;5013350;28;20232;-65
2023/03/26 09:37:24;;;;;;;8.20;1.80;;;;;;;11.28;75.93;99290.13;5056205;28;20204;-65
2023/03/26 09:40:12;;;;;;;7.13;1.70;;;;;;;11.20;76.72;99284.91;5034748;28;20240;-64
2023/03/26 09:42:44;;;;;;;6.17;2.53;;;;;;;11.20;76.08;99280.41;5033616;28;20205;-66
2023/03/26 09:45:36;;;;;;;13.17;2.37;;;;;;;11.14;76.44;99305.03;5035610;28;20818;-65
2023/03/26 09:48:15;;;;;;;7.40;2.20;;;;;;;11.23;77.92;99327.00;5035440;28;20315;-65
2023/03/26 09:51:09;;;;;;;8.47;2.43;;;;;;;11.32;77.87;99328.59;5034912;28;20236;-66
2023/03/26 09:53:52;;;;;;;7.17;2.10;;;;;;;11.38;78.65;99317.22;5032388;28;20235;-64
2023/03/26 09:56:35;;;;;;;7.67;2.30;;;;;;;11.57;78.14;99294.66;5034342;28;20234;-62
2023/03/26 09:59:39;;;;;;;8.53;2.07;;;;;;;11.98;77.53;99274.56;5032705;28;20204;-63
2023/03/26 10:02:45;;;;;;;6.67;1.97;;;;;;;13.28;73.61;99279.75;4997427;28;20227;-65
2023/03/26 10:05:30;;;;;;;5.50;1.80;;;;;;;15.38;64.24;99256.34;5000423;28;20204;-63
2023/03/26 10:08:15;;;;;;;6.70;1.50;;;;;;;16.33;59.08;99262.00;5033716;28;20231;-62
2023/03/26 10:10:52;;;;;;;6.00;1.83;;;;;;;16.56;57.41;99256.91;5034318;28;20209;-64
2023/03/26 10:13:30;;;;;;;5.30;1.37;;;;;;;16.88;55.92;99261.25;5032917;28;20285;-66
2023/03/26 10:16:10;;;;;;;6.70;1.63;;;;;;;18.71;53.55;99253.22;5034426;28;20242;-64
2023/03/26 10:18:52;;;;;;;5.30;2.03;;;;;;;22.37;44.18;99242.63;5039629;28;20376;-65
2023/03/26 10:21:29;;;;;;;5.40;1.70;;;;;;;24.53;38.63;99238.09;5033630;28;20212;-64
2023/03/26 10:24:22;;;;;;;5.17;1.80;;;;;;;25.59;36.52;99238.06;5031749;28;20209;-63
2023/03/26 10:27:10;;;;;;;6.07;1.60;;;;;;;22.57;40.08;99226.63;5033139;28;20212;-63
2023/03/26 10:29:58;;;;;;;5.27;1.93;;;;;;;20.08;44.08;99229.41;5031710;28;20563;-64
2023/03/26 10:32:32;;;;;;;4.90;1.80;;;;;;;17.13;50.72;99225.59;5033348;28;20653;-65
2023/03/26 10:35:19;;;;;;;5.30;1.47;;;;;;;15.12;57.83;99227.03;5034120;28;20200;-65
2023/03/26 10:38:01;;;;;;;5.70;1.27;;;;;;;14.24;61.15;99223.66;5035160;28;20692;-65
2023/03/26 10:40:34;;;;;;;8.00;2.00;;;;;;;13.71;64.33;99227.97;5031673;28;20575;-65
2023/03/26 10:43:50;;;;;;;5.73;1.90;;;;;;;13.27;66.73;99228.38;5032009;28;20217;-64
2023/03/26 10:46:47;;;;;;;5.67;2.00;;;;;;;13.10;68.63;99234.97;5031197;28;20333;-65
2023/03/26 10:49:36;;;;;;;6.43;1.73;;;;;;;13.03;68.90;99232.25;5034421;28;20216;-63
2023/03/26 10:52:06;;;;;;;7.57;2.33;;;;;;;13.02;69.77;99227.94;5027970;28;20222;-66
2023/03/26 10:54:42;;;;;;;9.97;2.43;;;;;;;13.08;71.73;99226.34;5032377;28;20223;-63
2023/03/26 10:57:22;;;;;;;7.53;2.23;;;;;;;13.12;72.46;99227.59;5031100;28;21086;-65
2023/03/26 10:59:51;;;;;;;7.33;2.73;;;;;;;12.85;75.39;99226.56;5034690;28;20214;-66
2023/03/26 11:02:29;;;;;;;9.53;2.80;;;;;;;12.95;77.82;99224.41;5032463;28;20249;-65
2023/03/26 11:05:22;;;;;;;6.70;2.10;;;;;;;16.32;71.06;99217.56;5033166;28;20210;-66
2023/03/26 11:07:56;;;;;;;4.67;2.17;;;;;;;18.65;56.98;99214.66;5032903;28;20238;-66
2023/03/26 11:10:35;;;;;;;5.03;1.57;;;;;;;17.95;56.03;99208.22;5031232;28;20795;-65
2023/03/26 11:13:15;;;;;;;4.23;1.43;;;;;;;18.71;54.21;99202.19;5031398;28;20677;-66
2023/03/26 11:15:50;;;;;;;3.83;1.17;;;;;;;21.85;47.20;99196.41;5031018;28;20208;-65
2023/03/26 11:18:23;;;;;;;2.13;0.93;;;;;;;24.47;39.67;99188.47;5031599;28;20214;-65
2023/03/26 11:20:58;;;;;;;4.47;0.60;;;;;;;26.03;36.36;99185.75;5034061;28;20208;-64
2023/03/26 11:23:55;;;;;;;4.05;0.82;;;;;;;24.88;35.50;99191.22;5036730;28;20296;-65
2023/03/26 11:26:39;;;;;;;2.10;0.70;;;;;;;22.49;37.96;99190.13;5030564;28;20216;-65
2023/03/26 11:29:28;;;;;;;3.25;0.57;;;;;;;20.37;41.27;99200.66;5035921;28;20802;-64
2023/03/26 11:32:05;;;;;;;2.35;0.73;;;;;;;18.80;44.31;99206.19;5034609;28;20295;-65
2023/03/26 11:34:37;;;;;;;1.33;0.60;;;;;;;17.79;46.84;99211.50;5031841;28;20244;-64
2023/03/26 11:37:13;;;;;;;2.63;0.77;;;;;;;16.92;49.13;99219.59;5033513;28;20811;-65
2023/03/26 11:39:48;;;;;;;1.67;0.70;;;;;;;16.33;51.76;99220.00;5052675;28;20238;-66
2023/03/26 11:42:18;;;;;;;1.97;0.50;;;;;;;18.86;45.88;99217.84;5055552;28;20206;-63
2023/03/26 11:44:53;;;;;;;3.73;0.63;;;;;;;20.52;41.92;99214.38;5055400;28;20255;-64
2023/03/26 11:47:25;;;;;;;1.37;0.60;;;;;;;22.44;39.68;99213.53;5057961;28;20203;-64
2023/03/26 11:49:55;;;;;;;1.60;0.40;;;;;;;25.15;34.80;99196.34;5056482;28;20759;-64
2023/03/26 11:52:26;;;;;;;1.85;0.45;;;;;;;26.93;31.86;99199.81;5055434;28;20211;-65
2023/03/26 11:54:57;;;;;;;2.90;0.60;;;;;;;29.06;28.27;99206.06;5054715;28;20245;-64
2023/03/26 11:57:29;;;;;;;1.45;0.60;;;;;;;30.11;26.77;99206.22;5056850;28;20274;-63
2023/03/26 12:00:15;;;;;;;1.55;0.40;;;;;;;30.01;26.47;99190.06;5055800;28;20258;-67
2023/03/26 12:02:43;;;;;;;1.38;0.60;;;;;;;28.46;27.86;99194.22;5053319;28;20211;-67
2023/03/26 12:05:15;;;;;;;2.25;0.60;;;;;;;26.44;30.21;99194.50;5059761;28;20223;-67